createdAt,value
2018-04-01T00:01:53.392Z,98753.51
2018-04-01T00:04:54.429Z,98754.77
2018-04-01T00:07:55.447Z,98753.79
2018-04-01T00:10:56.446Z,98751.30
2018-04-01T00:13:57.460Z,98758.52
2018-04-01T00:16:58.515Z,98755.45
2018-04-01T00:20:00.280Z,98756.25
2018-04-01T00:23:02.046Z,98760.96
2018-04-01T00:26:03.038Z,98761.95
2018-04-01T00:29:04.059Z,98769.52
2018-04-01T00:32:05.066Z,98768.16
2018-04-01T00:35:06.088Z,98771.08
2018-04-01T00:38:07.821Z,98773.95
2018-04-01T00:41:08.804Z,98766.46
2018-04-01T00:44:10.559Z,98768.47
2018-04-01T00:47:11.575Z,98770.89
2018-04-01T00:50:12.612Z,98763.16
2018-04-01T00:53:14.465Z,98772.43
2018-04-01T00:56:16.227Z,98760.84
2018-04-01T00:59:17.231Z,98765.55
2018-04-01T01:02:18.411Z,98768.63
2018-04-01T01:05:19.446Z,98768.59
2018-04-01T01:08:20.478Z,98773.03
2018-04-01T01:11:21.468Z,98757.92
2018-04-01T01:14:22.786Z,98769.32
2018-04-01T01:17:23.822Z,98772.81
2018-04-01T01:20:24.863Z,98766.81
2018-04-01T01:23:25.875Z,98778.53
2018-04-01T01:26:26.913Z,98772.58
2018-04-01T01:29:27.918Z,98781.37
2018-04-01T01:32:28.964Z,98783.83
2018-04-01T01:35:30.720Z,98783.05
2018-04-01T01:38:31.705Z,98781.39
2018-04-01T01:41:32.750Z,98783.63
2018-04-01T01:44:34.527Z,98783.02
2018-04-01T01:47:36.267Z,98784.55
2018-04-01T01:50:37.302Z,98791.36
2018-04-01T01:53:38.327Z,98783.11
2018-04-01T01:56:40.107Z,98793.09
2018-04-01T01:59:41.157Z,98794.72
2018-04-01T02:02:42.927Z,98792.84
2018-04-01T02:05:44.699Z,98793.30
2018-04-01T02:08:46.466Z,98789.72
2018-04-01T02:11:48.220Z,98801.82
2018-04-01T02:14:49.216Z,98802.16
2018-04-01T02:17:50.963Z,98799.20
2018-04-01T02:20:51.984Z,98794.63
2018-04-01T02:23:53.030Z,98797.66
2018-04-01T02:26:54.120Z,98786.38
2018-04-01T02:29:55.147Z,98784.14
2018-04-01T02:32:56.120Z,98790.47
2018-04-01T02:35:57.104Z,98787.87
2018-04-01T02:38:58.107Z,98790.16
2018-04-01T02:41:59.096Z,98787.77
2018-04-01T02:45:00.106Z,98782.39
2018-04-01T02:48:01.873Z,98769.03
2018-04-01T02:51:03.643Z,98769.67
2018-04-01T02:54:05.407Z,98780.52
2018-04-01T02:57:06.426Z,98775.78
2018-04-01T03:00:07.420Z,98776.27
2018-04-01T03:03:08.418Z,98777.88
2018-04-01T03:06:09.448Z,98774.23
2018-04-01T03:09:11.197Z,98769.64
2018-04-01T03:12:12.233Z,98781.44
2018-04-01T03:15:13.291Z,98774.13
2018-04-01T03:18:14.306Z,98777.95
2018-04-01T03:21:16.033Z,98780.06
2018-04-01T03:24:17.057Z,98783.83
2018-04-01T03:27:18.071Z,98788.73
2018-04-01T03:30:19.825Z,98784.27
2018-04-01T03:33:20.807Z,98794.55
2018-04-01T03:36:21.824Z,98785.62
2018-04-01T03:39:22.844Z,98790.59
2018-04-01T03:42:24.581Z,98790.00
2018-04-01T03:45:25.599Z,98796.29
2018-04-01T03:48:26.573Z,98791.02
2018-04-01T03:51:27.892Z,98781.87
2018-04-01T03:54:28.911Z,98792.05
2018-04-01T03:57:29.923Z,98787.61
2018-04-01T04:00:30.943Z,98798.30
2018-04-01T04:03:31.962Z,98796.42
2018-04-01T04:06:33.023Z,98798.51
2018-04-01T04:09:34.822Z,98804.16
2018-04-01T04:12:35.826Z,98805.70
2018-04-01T04:15:36.835Z,98802.16
2018-04-01T04:18:37.816Z,98809.77
2018-04-01T04:21:39.010Z,98800.48
2018-04-01T04:24:40.036Z,98815.66
2018-04-01T04:27:41.798Z,98813.65
2018-04-01T04:30:42.803Z,98815.88
2018-04-01T04:33:43.817Z,98810.30
2018-04-01T04:36:44.852Z,98808.74
2018-04-01T04:39:45.910Z,98813.02
2018-04-01T04:42:46.933Z,98825.58
2018-04-01T04:45:47.982Z,98825.95
2018-04-01T04:48:48.976Z,98829.80
2018-04-01T04:51:50.240Z,98835.78
2018-04-01T04:54:51.336Z,98829.43
2018-04-01T04:57:52.305Z,98839.62
2018-04-01T05:00:54.061Z,98841.26
2018-04-01T05:07:24.148Z,98845.44
2018-04-01T05:10:25.896Z,98855.63
2018-04-01T05:13:26.944Z,98866.16
2018-04-01T05:16:27.966Z,98855.64
2018-04-01T05:19:29.017Z,98863.54
2018-04-01T05:22:30.091Z,98862.73
2018-04-01T05:25:31.103Z,98865.92
2018-04-01T05:28:32.113Z,98877.61
2018-04-01T05:31:33.210Z,98888.75
2018-04-01T05:34:34.242Z,98896.55
2018-04-01T05:37:35.253Z,98897.37
2018-04-01T05:40:36.975Z,98908.70
2018-04-01T05:43:38.739Z,98909.31
2018-04-01T05:46:39.789Z,98910.76
2018-04-01T05:49:40.837Z,98910.00
2018-04-01T05:52:41.831Z,98921.76
2018-04-01T05:55:42.843Z,98927.37
2018-04-01T05:58:43.843Z,98923.01
2018-04-01T06:01:44.853Z,98927.19
2018-04-01T06:04:46.610Z,98935.53
2018-04-01T06:07:48.369Z,98934.98
2018-04-01T06:10:49.376Z,98942.00
2018-04-01T06:13:50.379Z,98949.13
2018-04-01T06:16:51.360Z,98946.20
2018-04-01T06:19:53.106Z,98957.30
2018-04-01T06:22:54.235Z,98954.77
2018-04-01T06:25:55.254Z,98954.44
2018-04-01T06:28:56.983Z,98956.22
2018-04-01T06:31:57.972Z,98947.09
2018-04-01T06:34:58.971Z,98947.67
2018-04-01T06:37:59.962Z,98953.45
2018-04-01T06:41:00.991Z,98954.49
2018-04-01T06:44:02.039Z,98962.70
2018-04-01T06:47:03.035Z,98956.72
2018-04-01T06:50:04.055Z,98964.73
2018-04-01T06:53:05.035Z,98957.44
2018-04-01T06:56:06.053Z,98960.19
2018-04-01T06:59:07.034Z,98968.05
2018-04-01T07:02:08.022Z,98965.74
2018-04-01T07:05:09.063Z,98970.81
2018-04-01T07:08:10.080Z,98974.45
2018-04-01T07:11:11.804Z,98979.98
2018-04-01T07:14:12.818Z,98988.75
2018-04-01T07:17:14.550Z,98992.20
2018-04-01T07:20:15.550Z,98996.37
2018-04-01T07:23:16.528Z,98996.19
2018-04-01T07:26:17.561Z,99015.44
2018-04-01T07:29:18.555Z,99021.30
2018-04-01T07:32:19.546Z,99014.52
2018-04-01T07:35:20.523Z,99019.08
2018-04-01T07:38:22.259Z,99029.55
2018-04-01T07:41:23.251Z,99026.23
2018-04-01T07:44:24.994Z,99030.38
2018-04-01T07:47:26.002Z,99038.45
2018-04-01T07:50:27.038Z,99031.75
2018-04-01T07:53:28.802Z,99044.94
2018-04-01T07:56:29.787Z,99047.47
2018-04-01T07:59:30.808Z,99045.75
2018-04-01T08:02:31.805Z,99050.13
2018-04-01T08:05:32.791Z,99050.28
2018-04-01T08:08:33.810Z,99056.05
2018-04-01T08:11:35.569Z,99054.77
2018-04-01T08:14:36.581Z,99060.95
2018-04-01T08:17:37.559Z,99064.86
2018-04-01T08:20:38.558Z,99061.78
2018-04-01T08:23:39.574Z,99064.72
2018-04-01T08:26:40.647Z,99068.38
2018-04-01T08:29:41.761Z,99066.40
2018-04-01T08:32:42.802Z,99069.52
2018-04-01T08:35:43.922Z,99073.53
2018-04-01T08:38:44.946Z,99086.40
2018-04-01T08:41:45.982Z,99088.52
2018-04-01T08:44:47.014Z,99090.95
2018-04-01T08:47:48.756Z,99096.31
2018-04-01T08:50:49.744Z,99098.58
2018-04-01T08:53:51.525Z,99098.44
2018-04-01T08:56:53.311Z,99111.65
2018-04-01T08:59:55.065Z,99117.48
2018-04-01T09:02:56.775Z,99122.29
2018-04-01T09:05:57.821Z,99126.70
2018-04-01T09:08:58.853Z,99132.74
2018-04-01T09:12:00.621Z,99129.02
2018-04-01T09:15:01.650Z,99137.20
2018-04-01T09:18:02.669Z,99143.58
2018-04-01T09:21:03.690Z,99150.33
2018-04-01T09:24:04.794Z,99158.59
2018-04-01T09:27:05.818Z,99158.85
2018-04-01T09:30:06.815Z,99165.02
2018-04-01T09:33:07.812Z,99173.82
2018-04-01T09:36:09.558Z,99176.22
2018-04-01T09:39:10.556Z,99179.41
2018-04-01T09:42:11.536Z,99185.39
2018-04-01T09:45:13.268Z,99188.34
2018-04-01T09:48:14.273Z,99177.28
2018-04-01T09:51:16.038Z,99189.11
2018-04-01T09:54:17.832Z,99200.74
2018-04-01T09:57:18.827Z,99204.36
2018-04-01T10:00:24.520Z,99213.11
2018-04-01T10:03:25.789Z,99210.83
2018-04-01T10:06:27.062Z,99217.53
2018-04-01T10:09:29.098Z,99214.73
2018-04-01T10:12:30.416Z,99223.20
2018-04-01T10:15:32.399Z,99219.98
2018-04-01T10:18:34.398Z,99217.06
2018-04-01T10:21:35.680Z,99232.93
2018-04-01T10:24:37.688Z,99237.58
2018-04-01T10:27:39.020Z,99246.95
2018-04-01T10:30:40.302Z,99244.13
2018-04-01T10:33:41.559Z,99257.41
2018-04-01T10:36:42.977Z,99258.92
2018-04-01T10:39:44.976Z,99266.37
2018-04-01T10:42:46.209Z,99262.59
2018-04-01T10:45:48.232Z,99275.76
2018-04-01T10:48:49.466Z,99281.09
2018-04-01T10:51:51.475Z,99291.91
2018-04-01T10:54:52.482Z,99291.55
2018-04-01T10:57:53.574Z,99297.23
2018-04-01T11:00:54.582Z,99306.08
2018-04-01T11:03:55.586Z,99311.81
2018-04-01T11:06:56.582Z,99300.19
2018-04-01T11:09:57.575Z,99312.41
2018-04-01T11:12:59.319Z,99303.44
2018-04-01T11:16:00.341Z,99308.75
2018-04-01T11:19:01.362Z,99302.67
2018-04-01T11:22:03.125Z,99313.30
2018-04-01T11:25:04.131Z,99314.39
2018-04-01T11:28:05.141Z,99326.41
2018-04-01T11:31:06.132Z,99318.94
2018-04-01T11:34:07.916Z,99321.98
2018-04-01T11:37:08.937Z,99326.30
2018-04-01T11:40:09.958Z,99337.08
2018-04-01T11:43:10.973Z,99339.05
2018-04-01T11:46:12.733Z,99336.90
2018-04-01T11:49:13.716Z,99346.43
2018-04-01T11:52:14.734Z,99356.77
2018-04-01T11:55:15.743Z,99350.14
2018-04-01T11:58:16.712Z,99352.72
2018-04-01T12:01:17.750Z,99349.83
2018-04-01T12:04:18.776Z,99354.36
2018-04-01T12:07:19.756Z,99353.03
2018-04-01T12:10:21.507Z,99365.79
2018-04-01T12:13:22.529Z,99360.23
2018-04-01T12:16:23.547Z,99366.28
2018-04-01T12:19:24.556Z,99368.22
2018-04-01T12:22:25.585Z,99367.94
2018-04-01T12:25:26.610Z,99367.84
2018-04-01T12:28:28.365Z,99374.02
2018-04-01T12:31:29.360Z,99375.92
2018-04-01T12:34:30.352Z,99372.59
2018-04-01T12:37:31.373Z,99368.50
2018-04-01T12:40:32.405Z,99378.17
2018-04-01T12:43:34.329Z,99375.71
2018-04-01T12:46:35.361Z,99375.75
2018-04-01T12:49:36.386Z,99381.21
2018-04-01T12:52:37.382Z,99377.41
2018-04-01T12:55:38.395Z,99391.73
2018-04-01T12:58:39.414Z,99387.20
2018-04-01T13:01:40.451Z,99399.30
2018-04-01T13:04:41.455Z,99393.53
2018-04-01T13:07:42.458Z,99393.52
2018-04-01T13:10:44.192Z,99402.78
2018-04-01T13:13:45.190Z,99416.21
2018-04-01T13:16:46.954Z,99414.44
2018-04-01T13:19:48.691Z,99417.52
2018-04-01T13:22:49.701Z,99413.28
2018-04-01T13:25:50.774Z,99414.84
2018-04-01T13:28:51.772Z,99430.85
2018-04-01T13:31:52.923Z,99434.76
2018-04-01T13:34:53.957Z,99443.54
2018-04-01T13:37:55.251Z,99442.91
2018-04-01T13:40:57.301Z,99441.38
2018-04-01T13:43:58.303Z,99444.18
2018-04-01T13:46:59.606Z,99441.47
2018-04-01T13:50:00.663Z,99442.42
2018-04-01T13:53:02.006Z,99447.70
2018-04-01T13:56:04.386Z,99444.42
2018-04-01T13:59:05.417Z,99441.73
2018-04-01T14:02:07.599Z,99432.64
2018-04-01T14:05:08.744Z,99448.12
2018-04-01T14:08:09.787Z,99456.20
2018-04-01T14:11:11.159Z,99446.84
2018-04-01T14:14:12.558Z,99455.06
2018-04-01T14:17:14.379Z,99464.60
2018-04-01T14:20:16.616Z,99463.45
2018-04-01T14:23:18.611Z,99470.52
2018-04-01T14:26:20.561Z,99474.27
2018-04-01T14:29:21.777Z,99470.84
2018-04-01T14:32:23.551Z,99481.64
2018-04-01T14:35:26.004Z,99488.75
2018-04-01T14:38:27.258Z,99488.54
2018-04-01T14:41:28.286Z,99484.39
2018-04-01T14:44:29.697Z,99488.13
2018-04-01T14:47:30.681Z,99497.31
2018-04-01T14:50:31.966Z,99492.64
2018-04-01T14:53:33.129Z,99497.06
2018-04-01T14:56:34.427Z,99498.87
2018-04-01T14:59:35.789Z,99491.50
2018-04-01T15:02:37.118Z,99490.13
2018-04-01T15:05:38.154Z,99488.46
2018-04-01T15:08:39.575Z,99486.62
2018-04-01T15:11:40.622Z,99502.77
2018-04-01T15:14:42.140Z,99492.80
2018-04-01T15:17:43.554Z,99496.98
2018-04-01T15:20:44.944Z,99498.94
2018-04-01T15:23:45.986Z,99510.61
2018-04-01T15:26:47.156Z,99507.14
2018-04-01T15:29:48.511Z,99516.45
2018-04-01T15:32:49.902Z,99509.82
2018-04-01T15:35:51.280Z,99515.51
2018-04-01T15:41:54.485Z,99510.66
2018-04-01T15:44:55.846Z,99511.29
2018-04-01T15:47:57.624Z,99511.05
2018-04-01T15:50:58.631Z,99512.06
2018-04-01T15:54:00.024Z,99525.98
2018-04-01T15:57:01.087Z,99524.52
2018-04-01T16:00:02.069Z,99523.45
2018-04-01T16:03:03.192Z,99521.42
2018-04-01T16:06:04.220Z,99534.69
2018-04-01T16:09:05.232Z,99528.95
2018-04-01T16:12:06.576Z,99530.19
2018-04-01T16:15:07.691Z,99526.02
2018-04-01T16:18:08.663Z,99518.73
2018-04-01T16:21:09.996Z,99539.00
2018-04-01T16:24:11.363Z,99535.58
2018-04-01T16:27:13.632Z,99543.76
2018-04-01T16:30:15.117Z,99546.23
2018-04-01T16:33:16.489Z,99555.75
2018-04-01T16:36:17.671Z,99560.27
2018-04-01T16:39:18.932Z,99563.33
2018-04-01T16:42:20.283Z,99564.38
2018-04-01T16:45:21.671Z,99563.52
2018-04-01T16:48:23.045Z,99570.10
2018-04-01T16:51:24.859Z,99575.86
2018-04-01T16:54:26.270Z,99582.55
2018-04-01T16:57:28.155Z,99588.59
2018-04-01T17:00:29.930Z,99584.46
2018-04-01T17:03:31.240Z,99599.38
2018-04-01T17:06:32.277Z,99592.50
2018-04-01T17:09:34.046Z,99597.13
2018-04-01T17:12:35.018Z,99599.79
2018-04-01T17:15:36.820Z,99612.49
2018-04-01T17:18:37.930Z,99612.01
2018-04-01T17:21:39.010Z,99607.14
2018-04-01T17:24:39.998Z,99613.58
2018-04-01T17:27:41.167Z,99621.90
2018-04-01T17:30:42.234Z,99623.41
2018-04-01T17:33:43.497Z,99628.14
2018-04-01T17:36:44.533Z,99631.70
2018-04-01T17:39:45.541Z,99625.80
2018-04-01T17:42:46.595Z,99638.17
2018-04-01T17:45:51.170Z,99641.39
2018-04-01T17:48:53.546Z,99637.26
2018-04-01T17:51:54.934Z,99648.44
2018-04-01T17:54:56.136Z,99657.81
2018-04-01T17:57:57.483Z,99659.63
2018-04-01T18:00:58.905Z,99660.18
2018-04-01T18:04:00.154Z,99668.73
2018-04-01T18:07:01.475Z,99671.44
2018-04-01T18:10:04.339Z,99676.78
2018-04-01T18:13:06.245Z,99684.09
2018-04-01T18:16:08.391Z,99688.52
2018-04-01T18:19:10.319Z,99686.64
2018-04-01T18:22:11.408Z,99701.48
2018-04-01T18:25:12.625Z,99697.52
2018-04-01T18:28:14.000Z,99689.98
2018-04-01T18:31:15.317Z,99702.30
2018-04-01T18:34:16.406Z,99701.69
2018-04-01T18:37:18.371Z,99706.83
2018-04-01T18:40:19.774Z,99705.39
2018-04-01T18:43:21.046Z,99713.73
2018-04-01T18:46:22.314Z,99719.31
2018-04-01T18:52:24.608Z,99727.85
2018-04-01T18:55:25.764Z,99726.98
2018-04-01T18:58:26.896Z,99732.14
2018-04-01T19:01:28.006Z,99725.98
2018-04-01T19:04:29.868Z,99721.41
2018-04-01T19:07:31.797Z,99730.23
2018-04-01T19:10:33.805Z,99731.66
2018-04-01T19:13:36.181Z,99730.05
2018-04-01T19:16:56.069Z,99745.14
2018-04-01T19:19:57.302Z,99750.92
2018-04-01T19:22:59.276Z,99743.55
2018-04-01T19:26:00.515Z,99751.45
2018-04-01T19:29:02.386Z,99752.59
2018-04-01T19:32:03.692Z,99765.41
2018-04-01T19:35:04.966Z,99771.77
2018-04-01T19:38:06.638Z,99768.04
2018-04-01T19:41:07.974Z,99774.95
2018-04-01T19:44:10.643Z,99773.50
2018-04-01T19:47:12.461Z,99788.98
2018-04-01T19:50:14.726Z,99784.48
2018-04-01T19:53:16.138Z,99788.26
2018-04-01T19:56:17.646Z,99776.21
2018-04-01T19:59:19.069Z,99786.80
2018-04-01T20:02:20.475Z,99780.72
2018-04-01T20:05:22.334Z,99784.55
2018-04-01T20:08:23.860Z,99777.64
2018-04-01T20:11:26.218Z,99780.91
2018-04-01T20:14:27.959Z,99784.88
2018-04-01T20:17:31.273Z,99786.58
2018-04-01T20:20:32.546Z,99784.10
2018-04-01T20:23:34.136Z,99780.80
2018-04-01T20:26:35.571Z,99789.23
2018-04-01T20:29:37.556Z,99780.34
2018-04-01T20:32:39.734Z,99779.79
2018-04-01T20:35:41.779Z,99788.03
2018-04-01T20:38:44.175Z,99787.60
2018-04-01T20:41:45.850Z,99782.52
2018-04-01T20:44:47.141Z,99792.42
2018-04-01T20:47:49.124Z,99787.81
2018-04-01T20:50:50.455Z,99787.96
2018-04-01T20:53:51.680Z,99796.13
2018-04-01T20:56:53.789Z,99799.03
2018-04-01T20:59:55.783Z,99791.27
2018-04-01T21:02:57.819Z,99785.80
2018-04-01T21:05:59.056Z,99794.55
2018-04-01T21:09:01.130Z,99793.91
2018-04-01T21:12:02.427Z,99793.57
2018-04-01T21:15:04.538Z,99796.06
2018-04-01T21:18:06.560Z,99789.90
2018-04-01T21:21:07.831Z,99802.96
2018-04-01T21:24:09.139Z,99803.30
2018-04-01T21:27:10.404Z,99801.13
2018-04-01T21:30:11.679Z,99792.78
2018-04-01T21:33:13.012Z,99805.34
2018-04-01T21:36:14.283Z,99802.80
2018-04-01T21:39:15.944Z,99801.39
2018-04-01T21:42:17.705Z,99801.34
2018-04-01T21:45:18.983Z,99795.87
2018-04-01T21:48:20.227Z,99792.19
2018-04-01T21:51:21.492Z,99806.85
2018-04-01T21:54:23.320Z,99801.00
2018-04-01T21:57:24.654Z,99802.53
2018-04-01T22:00:25.916Z,99804.10
2018-04-01T22:03:27.156Z,99800.16
2018-04-01T22:06:28.459Z,99801.32
2018-04-01T22:09:29.827Z,99795.82
2018-04-01T22:12:31.069Z,99798.73
2018-04-01T22:15:32.433Z,99804.67
2018-04-01T22:18:33.676Z,99799.94
2018-04-01T22:21:34.904Z,99795.76
2018-04-01T22:24:36.142Z,99806.79
2018-04-01T22:27:37.374Z,99799.11
2018-04-01T22:30:39.336Z,99801.14
2018-04-01T22:33:40.585Z,99794.30
2018-04-01T22:36:41.862Z,99788.23
2018-04-01T22:39:43.080Z,99780.76
2018-04-01T22:42:44.333Z,99779.55
2018-04-01T22:45:45.572Z,99780.39
2018-04-01T22:48:47.555Z,99785.06
2018-04-01T22:51:49.535Z,99788.58
2018-04-01T22:54:50.784Z,99787.11
2018-04-01T22:57:52.004Z,99793.21
2018-04-01T23:00:54.078Z,99782.98
2018-04-01T23:03:55.256Z,99784.36
2018-04-01T23:06:56.471Z,99788.39
2018-04-01T23:09:58.470Z,99784.45
2018-04-01T23:12:59.720Z,99782.33
2018-04-01T23:16:00.997Z,99781.31
2018-04-01T23:19:02.315Z,99788.86
2018-04-01T23:22:03.567Z,99782.54
2018-04-01T23:25:04.792Z,99769.42
2018-04-01T23:28:06.019Z,99773.83
2018-04-01T23:31:07.267Z,99779.02
2018-04-01T23:34:09.224Z,99780.29
2018-04-01T23:37:10.478Z,99780.64
2018-04-01T23:40:12.478Z,99785.00
2018-04-01T23:43:14.485Z,99785.11
2018-04-01T23:46:15.702Z,99782.92
2018-04-01T23:49:16.919Z,99786.83
2018-04-01T23:52:18.155Z,99784.70
2018-04-01T23:55:19.399Z,99782.52
2018-04-01T23:58:20.695Z,99780.77
